createdAt,value
2023-04-21T00:00:24.165Z,0.00
2023-04-21T00:01:24.071Z,0.00
2023-04-21T00:02:24.109Z,0.00
2023-04-21T00:03:24.234Z,0.00
2023-04-21T00:04:24.143Z,0.00
2023-04-21T00:05:23.777Z,0.00
2023-04-21T00:06:23.653Z,0.00
2023-04-21T00:07:23.591Z,0.00
2023-04-21T00:08:23.497Z,0.00
2023-04-21T00:09:23.409Z,0.00
2023-04-21T00:10:23.318Z,0.00
2023-04-21T00:11:23.238Z,0.00
2023-04-21T00:12:23.149Z,0.00
2023-04-21T00:13:23.085Z,0.00
2023-04-21T00:14:22.987Z,0.00
2023-04-21T00:15:22.900Z,0.00
2023-04-21T00:16:22.867Z,0.00
2023-04-21T00:17:24.189Z,0.00
2023-04-21T00:18:22.650Z,0.00
2023-04-21T00:20:22.502Z,0.00
2023-04-21T00:21:22.401Z,0.00
2023-04-21T00:22:22.313Z,0.00
2023-04-21T00:23:22.230Z,0.00
2023-04-21T00:24:22.154Z,0.00
2023-04-21T00:25:22.059Z,0.00
2023-04-21T00:26:21.979Z,0.00
2023-04-21T00:27:21.894Z,0.00
2023-04-21T00:28:21.808Z,0.00
2023-04-21T00:29:21.932Z,0.00
2023-04-21T00:30:21.638Z,0.00
2023-04-21T00:31:21.588Z,0.00
2023-04-21T00:32:21.491Z,0.00
2023-04-21T00:33:21.419Z,0.00
2023-04-21T00:34:21.299Z,0.00
2023-04-21T00:35:21.230Z,0.00
2023-04-21T00:36:21.170Z,0.00
2023-04-21T00:37:21.056Z,0.00
2023-04-21T00:38:20.981Z,0.00
2023-04-21T00:39:20.995Z,0.00
2023-04-21T00:40:21.398Z,0.00
2023-04-21T00:41:20.720Z,0.00
2023-04-21T00:42:20.635Z,0.00
2023-04-21T00:43:20.562Z,0.00
2023-04-21T00:44:20.460Z,0.00
2023-04-21T00:45:20.382Z,0.00
2023-04-21T00:46:20.324Z,0.00
2023-04-21T00:47:20.459Z,0.00
2023-04-21T00:48:20.176Z,0.00
2023-04-21T00:49:20.259Z,0.00
2023-04-21T00:50:19.961Z,0.00
2023-04-21T00:51:19.876Z,0.00
2023-04-21T00:52:19.819Z,0.00
2023-04-21T00:53:19.704Z,0.00
2023-04-21T00:54:19.619Z,0.00
2023-04-21T00:55:19.796Z,0.00
2023-04-21T00:56:19.457Z,0.00
2023-04-21T00:57:19.619Z,0.00
2023-04-21T00:58:19.282Z,0.00
2023-04-21T00:59:19.418Z,0.00
2023-04-21T01:00:19.122Z,0.00
2023-04-21T01:01:19.077Z,0.00
2023-04-21T01:02:19.066Z,0.00
2023-04-21T01:03:19.009Z,0.00
2023-04-21T01:04:18.896Z,0.00
2023-04-21T01:05:18.694Z,0.00
2023-04-21T01:06:18.608Z,0.00
2023-04-21T01:07:18.525Z,0.00
2023-04-21T01:08:18.460Z,0.00
2023-04-21T01:09:18.699Z,0.00
2023-04-21T01:10:18.272Z,0.00
2023-04-21T01:11:18.187Z,0.00
2023-04-21T01:12:18.103Z,0.00
2023-04-21T01:13:18.021Z,0.00
2023-04-21T01:14:17.935Z,0.00
2023-04-21T01:15:17.850Z,0.00
2023-04-21T01:16:17.825Z,0.00
2023-04-21T01:17:17.681Z,0.00
2023-04-21T01:18:17.595Z,0.00
2023-04-21T01:19:18.106Z,0.00
2023-04-21T01:20:17.467Z,0.00
2023-04-21T01:21:17.347Z,0.00
2023-04-21T01:22:17.271Z,0.00
2023-04-21T01:23:17.175Z,0.00
2023-04-21T01:24:17.111Z,0.00
2023-04-21T01:25:17.006Z,0.00
2023-04-21T01:26:16.923Z,0.00
2023-04-21T01:27:16.839Z,0.00
2023-04-21T01:28:16.757Z,0.00
2023-04-21T01:29:16.956Z,0.00
2023-04-21T01:30:16.581Z,0.00
2023-04-21T01:31:16.509Z,0.00
2023-04-21T01:32:16.525Z,0.00
2023-04-21T01:33:16.346Z,0.00
2023-04-21T01:34:16.248Z,0.00
2023-04-21T01:35:16.164Z,0.00
2023-04-21T01:36:16.084Z,0.00
2023-04-21T01:37:16.007Z,0.00
2023-04-21T01:38:17.625Z,0.00
2023-04-21T01:39:15.940Z,0.00
2023-04-21T01:40:15.768Z,0.00
2023-04-21T01:41:15.660Z,0.00
2023-04-21T01:42:15.575Z,0.00
2023-04-21T01:43:15.749Z,0.00
2023-04-21T01:44:15.405Z,0.00
2023-04-21T01:45:15.323Z,0.00
2023-04-21T01:46:15.272Z,0.00
2023-04-21T01:47:15.153Z,0.00
2023-04-21T01:48:15.136Z,0.00
2023-04-21T01:49:14.982Z,0.00
2023-04-21T01:50:14.901Z,0.00
2023-04-21T01:51:14.814Z,0.00
2023-04-21T01:52:14.732Z,0.00
2023-04-21T01:53:14.649Z,0.00
2023-04-21T01:54:14.560Z,0.00
2023-04-21T01:55:14.477Z,0.00
2023-04-21T01:56:14.412Z,0.00
2023-04-21T01:57:14.342Z,0.00
2023-04-21T01:58:14.223Z,0.00
2023-04-21T01:59:14.139Z,0.00
2023-04-21T02:01:14.001Z,0.00
2023-04-21T02:03:14.012Z,0.00
2023-04-21T02:04:13.830Z,0.00
2023-04-21T02:05:13.638Z,0.00
2023-04-21T02:08:13.796Z,0.00
2023-04-21T02:09:13.501Z,0.00
2023-04-21T02:10:13.215Z,0.00
2023-04-21T02:12:13.059Z,0.00
2023-04-21T02:15:12.787Z,0.00
2023-04-21T02:16:14.207Z,0.00
2023-04-21T02:18:12.722Z,0.00
2023-04-21T02:19:12.457Z,0.00
2023-04-21T02:20:12.367Z,0.00
2023-04-21T02:21:12.278Z,0.00
2023-04-21T02:22:12.202Z,0.00
2023-04-21T02:23:12.109Z,0.00
2023-04-21T02:24:12.023Z,0.00
2023-04-21T02:25:11.963Z,0.00
2023-04-21T02:26:11.855Z,0.00
2023-04-21T02:27:11.798Z,0.00
2023-04-21T02:28:11.704Z,0.00
2023-04-21T02:29:11.605Z,0.00
2023-04-21T02:30:11.529Z,0.00
2023-04-21T02:31:11.488Z,0.00
2023-04-21T02:32:24.890Z,0.00
2023-04-21T02:33:11.608Z,0.00
2023-04-21T02:34:11.227Z,0.00
2023-04-21T02:35:11.098Z,0.00
2023-04-21T02:36:11.008Z,0.00
2023-04-21T02:37:10.924Z,0.00
2023-04-21T02:38:10.846Z,0.00
2023-04-21T02:39:10.802Z,0.00
2023-04-21T02:40:11.073Z,0.00
2023-04-21T02:41:10.588Z,0.00
2023-04-21T02:42:10.501Z,0.00
2023-04-21T02:43:10.420Z,0.00
2023-04-21T02:44:10.354Z,0.00
2023-04-21T02:45:10.248Z,0.00
2023-04-21T02:46:10.224Z,0.00
2023-04-21T02:47:10.082Z,0.00
2023-04-21T02:48:10.107Z,0.00
2023-04-21T02:49:09.915Z,0.00
2023-04-21T02:50:09.821Z,0.00
2023-04-21T02:51:09.739Z,0.00
2023-04-21T02:52:09.652Z,0.00
2023-04-21T02:53:09.570Z,0.00
2023-04-21T02:54:09.497Z,0.00
2023-04-21T02:55:09.400Z,0.00
2023-04-21T02:56:09.348Z,0.00
2023-04-21T02:57:09.237Z,0.00
2023-04-21T02:58:09.144Z,0.00
2023-04-21T02:59:09.057Z,0.00
2023-04-21T03:00:09.001Z,0.00
2023-04-21T03:01:08.980Z,0.00
2023-04-21T03:02:08.819Z,0.00
2023-04-21T03:03:08.824Z,0.00
2023-04-21T03:04:08.799Z,0.00
2023-04-21T03:05:08.563Z,0.00
2023-04-21T03:06:08.502Z,0.00
2023-04-21T03:07:08.387Z,0.00
2023-04-21T03:08:08.295Z,0.00
2023-04-21T03:09:08.216Z,0.00
2023-04-21T03:10:08.125Z,0.00
2023-04-21T03:11:08.045Z,0.00
2023-04-21T03:12:07.973Z,0.00
2023-04-21T03:13:07.881Z,0.00
2023-04-21T03:14:07.934Z,0.00
2023-04-21T03:15:07.702Z,0.00
2023-04-21T03:16:07.684Z,0.00
2023-04-21T03:17:07.536Z,0.00
2023-04-21T03:18:07.476Z,0.00
2023-04-21T03:19:07.682Z,0.00
2023-04-21T03:21:07.197Z,0.00
2023-04-21T03:22:07.109Z,0.00
2023-04-21T03:24:06.938Z,0.00
2023-04-21T03:25:06.875Z,0.00
2023-04-21T03:26:06.806Z,0.00
2023-04-21T03:28:06.602Z,0.00
2023-04-21T03:30:06.433Z,0.00
2023-04-21T03:32:06.714Z,0.00
2023-04-21T03:34:06.089Z,0.00
2023-04-21T03:35:06.004Z,0.00
2023-04-21T03:36:05.920Z,0.00
2023-04-21T03:37:05.835Z,0.00
2023-04-21T03:38:05.757Z,0.00
2023-04-21T03:39:18.827Z,0.00
2023-04-21T03:40:05.586Z,0.00
2023-04-21T03:41:05.492Z,0.00
2023-04-21T03:42:05.407Z,0.00
2023-04-21T03:43:05.331Z,0.00
2023-04-21T03:44:05.238Z,0.00
2023-04-21T03:45:05.163Z,0.00
2023-04-21T03:46:05.113Z,0.00
2023-04-21T03:47:04.982Z,0.00
2023-04-21T03:48:05.036Z,0.00
2023-04-21T03:49:05.008Z,0.00
2023-04-21T03:50:04.728Z,0.00
2023-04-21T03:51:04.645Z,0.00
2023-04-21T03:52:04.556Z,0.00
2023-04-21T03:53:04.469Z,0.00
2023-04-21T03:54:04.388Z,0.00
2023-04-21T03:55:04.294Z,0.00
2023-04-21T03:56:04.218Z,0.00
2023-04-21T03:57:04.128Z,0.00
2023-04-21T03:58:04.043Z,0.00
2023-04-21T03:59:03.960Z,0.00
2023-04-21T04:00:04.272Z,0.00
2023-04-21T04:01:03.784Z,0.00
2023-04-21T04:02:03.767Z,0.00
2023-04-21T04:03:03.754Z,0.00
2023-04-21T04:04:03.868Z,0.00
2023-04-21T04:05:03.523Z,0.00
2023-04-21T04:06:03.357Z,0.00
2023-04-21T04:07:03.569Z,0.00
2023-04-21T04:08:03.188Z,0.00
2023-04-21T04:09:03.124Z,0.00
2023-04-21T04:10:03.010Z,0.00
2023-04-21T04:11:02.936Z,0.00
2023-04-21T04:12:02.861Z,0.00
2023-04-21T04:13:02.763Z,0.00
2023-04-21T04:14:02.700Z,0.00
2023-04-21T04:15:02.589Z,0.00
2023-04-21T04:16:02.704Z,0.00
2023-04-21T04:17:02.418Z,0.00
2023-04-21T04:18:02.517Z,0.00
2023-04-21T04:19:02.250Z,0.00
2023-04-21T04:20:02.194Z,0.00
2023-04-21T04:21:02.071Z,0.00
2023-04-21T04:22:02.013Z,5.63
2023-04-21T04:23:01.904Z,5.63
2023-04-21T04:24:01.818Z,5.63
2023-04-21T04:25:01.744Z,5.63
2023-04-21T04:26:01.673Z,5.63
2023-04-21T04:27:01.558Z,5.63
2023-04-21T04:28:01.485Z,5.63
2023-04-21T04:29:01.385Z,5.63
2023-04-21T04:30:01.308Z,5.63
2023-04-21T04:31:01.262Z,5.63
2023-04-21T04:32:01.130Z,5.63
2023-04-21T04:33:01.067Z,5.63
2023-04-21T04:34:01.118Z,11.25
2023-04-21T04:35:00.877Z,11.25
2023-04-21T04:36:00.808Z,11.25
2023-04-21T04:37:00.851Z,11.25
2023-04-21T04:38:00.630Z,11.25
2023-04-21T04:39:00.530Z,11.25
2023-04-21T04:40:00.448Z,11.25
2023-04-21T04:41:00.362Z,11.25
2023-04-21T04:42:00.275Z,11.25
2023-04-21T04:43:00.200Z,16.88
2023-04-21T04:44:00.735Z,16.88
2023-04-21T04:45:00.025Z,16.88
2023-04-21T04:45:59.935Z,16.88
2023-04-21T04:46:59.950Z,16.88
2023-04-21T04:47:59.806Z,16.88
2023-04-21T04:48:59.676Z,16.88
2023-04-21T04:49:59.593Z,16.88
2023-04-21T04:50:59.503Z,22.50
2023-04-21T04:51:59.488Z,22.50
2023-04-21T04:52:59.336Z,22.50
2023-04-21T04:53:59.247Z,22.50
2023-04-21T04:54:59.160Z,22.50
2023-04-21T04:55:59.080Z,22.50
2023-04-21T04:56:58.994Z,22.50
2023-04-21T04:57:59.155Z,22.50
2023-04-21T04:58:58.820Z,28.13
2023-04-21T04:59:58.748Z,28.13
2023-04-21T05:00:58.650Z,28.13
2023-04-21T05:01:58.684Z,33.75
2023-04-21T05:02:58.623Z,33.75
2023-04-21T05:03:58.504Z,33.75
2023-04-21T05:04:58.449Z,33.75
2023-04-21T05:05:58.227Z,39.38
2023-04-21T05:06:58.144Z,39.38
2023-04-21T05:07:58.088Z,39.38
2023-04-21T05:08:57.999Z,39.38
2023-04-21T05:09:57.950Z,39.38
2023-04-21T05:10:57.801Z,39.38
2023-04-21T05:11:57.870Z,45.00
2023-04-21T05:12:57.631Z,45.00
2023-04-21T05:13:57.554Z,45.00
2023-04-21T05:14:57.812Z,45.00
2023-04-21T05:15:57.382Z,45.00
2023-04-21T05:16:57.384Z,45.00
2023-04-21T05:17:57.257Z,50.63
2023-04-21T05:18:57.121Z,50.63
2023-04-21T05:19:57.044Z,50.63
2023-04-21T05:20:56.953Z,56.25
2023-04-21T05:21:57.071Z,56.25
2023-04-21T05:22:56.786Z,61.88
2023-04-21T05:23:56.729Z,61.88
2023-04-21T05:24:56.616Z,67.50
2023-04-21T05:25:56.532Z,73.13
2023-04-21T05:26:56.451Z,73.13
2023-04-21T05:27:56.362Z,84.38
2023-04-21T05:28:56.279Z,90.00
2023-04-21T05:29:56.196Z,90.00
2023-04-21T05:30:56.104Z,95.63
2023-04-21T05:31:56.056Z,95.63
2023-04-21T05:32:56.058Z,95.63
2023-04-21T05:33:55.851Z,95.63
2023-04-21T05:34:55.776Z,101.25
2023-04-21T05:35:55.689Z,101.25
2023-04-21T05:36:55.598Z,106.88
2023-04-21T05:37:55.517Z,106.88
2023-04-21T05:38:55.435Z,112.50
2023-04-21T05:39:55.366Z,118.13
2023-04-21T05:40:55.262Z,118.13
2023-04-21T05:41:55.178Z,123.75
2023-04-21T05:42:55.093Z,129.38
2023-04-21T05:43:55.011Z,129.38
2023-04-21T05:44:54.927Z,135.00
2023-04-21T05:45:54.868Z,135.00
2023-04-21T05:46:54.758Z,135.00
2023-04-21T05:47:54.803Z,135.00
2023-04-21T05:48:54.592Z,129.38
2023-04-21T05:49:54.513Z,129.38
2023-04-21T05:50:54.424Z,129.38
2023-04-21T05:51:54.340Z,129.38
2023-04-21T05:52:54.256Z,135.00
2023-04-21T05:53:54.169Z,135.00
2023-04-21T05:54:54.083Z,135.00
2023-04-21T05:55:54.021Z,135.00
2023-04-21T05:56:53.915Z,135.00
2023-04-21T05:57:53.837Z,135.00
2023-04-21T05:58:53.750Z,129.38
2023-04-21T05:59:53.666Z,123.75
2023-04-21T06:00:53.579Z,123.75
2023-04-21T06:01:53.499Z,123.75
2023-04-21T06:02:53.579Z,118.13
2023-04-21T06:03:53.505Z,118.13
2023-04-21T06:04:53.479Z,118.13
2023-04-21T06:05:53.244Z,118.13
2023-04-21T06:06:53.079Z,118.13
2023-04-21T06:07:53.003Z,118.13
2023-04-21T06:08:52.909Z,123.75
2023-04-21T06:09:52.834Z,123.75
2023-04-21T06:10:52.747Z,123.75
2023-04-21T06:11:52.933Z,129.38
2023-04-21T06:12:52.577Z,135.00
2023-04-21T06:13:53.043Z,140.63
2023-04-21T06:14:52.413Z,146.25
2023-04-21T06:15:52.396Z,151.88
2023-04-21T06:16:52.243Z,163.13
2023-04-21T06:17:52.186Z,180.00
2023-04-21T06:18:52.082Z,191.25
2023-04-21T06:19:51.995Z,202.50
2023-04-21T06:20:51.920Z,208.13
2023-04-21T06:21:51.828Z,208.13
2023-04-21T06:22:51.748Z,202.50
2023-04-21T06:23:51.667Z,202.50
2023-04-21T06:24:51.582Z,196.88
2023-04-21T06:25:51.514Z,196.88
2023-04-21T06:26:51.419Z,196.88
2023-04-21T06:27:51.373Z,196.88
2023-04-21T06:28:51.259Z,196.88
2023-04-21T06:29:51.166Z,213.75
2023-04-21T06:30:51.084Z,219.38
2023-04-21T06:31:51.035Z,213.75
2023-04-21T06:32:50.941Z,219.38
2023-04-21T06:33:50.849Z,230.63
2023-04-21T06:34:50.773Z,241.88
2023-04-21T06:35:50.670Z,247.50
2023-04-21T06:36:50.590Z,241.88
2023-04-21T06:37:50.525Z,225.00
2023-04-21T06:38:50.418Z,213.75
2023-04-21T06:39:50.355Z,213.75
2023-04-21T06:40:50.262Z,208.13
2023-04-21T06:41:50.181Z,202.50
2023-04-21T06:42:50.090Z,196.88
2023-04-21T06:43:50.029Z,196.88
2023-04-21T06:44:50.934Z,202.50
2023-04-21T06:45:50.144Z,202.50
2023-04-21T06:46:49.834Z,202.50
2023-04-21T06:47:49.722Z,202.50
2023-04-21T06:48:49.604Z,208.13
2023-04-21T06:49:49.515Z,213.75
2023-04-21T06:50:49.437Z,208.13
2023-04-21T06:51:49.351Z,208.13
2023-04-21T06:52:49.269Z,208.13
2023-04-21T06:53:49.190Z,208.13
2023-04-21T06:54:49.104Z,208.13
2023-04-21T06:55:49.029Z,208.13
2023-04-21T06:56:48.937Z,213.75
2023-04-21T06:57:48.859Z,213.75
2023-04-21T06:58:48.774Z,225.00
2023-04-21T06:59:48.717Z,219.38
2023-04-21T07:00:48.631Z,219.38
2023-04-21T07:01:48.835Z,225.00
2023-04-21T07:02:48.527Z,225.00
2023-04-21T07:03:48.419Z,225.00
2023-04-21T07:04:48.340Z,230.63
2023-04-21T07:05:48.201Z,230.63
2023-04-21T07:06:48.118Z,230.63
2023-04-21T07:07:48.037Z,230.63
2023-04-21T07:08:47.956Z,236.25
2023-04-21T07:09:47.872Z,247.50
2023-04-21T07:10:47.800Z,258.75
2023-04-21T07:11:47.708Z,270.00
2023-04-21T07:12:47.626Z,275.63
2023-04-21T07:13:47.555Z,275.63
2023-04-21T07:14:47.470Z,275.63
2023-04-21T07:15:47.401Z,275.63
2023-04-21T07:16:47.386Z,270.00
2023-04-21T07:17:47.262Z,258.75
2023-04-21T07:18:47.136Z,253.13
2023-04-21T07:19:47.055Z,241.88
2023-04-21T07:20:46.979Z,236.25
2023-04-21T07:21:46.891Z,225.00
2023-04-21T07:22:46.843Z,219.38
2023-04-21T07:23:46.728Z,208.13
2023-04-21T07:24:48.589Z,202.50
2023-04-21T07:25:46.578Z,191.25
2023-04-21T07:26:46.487Z,191.25
2023-04-21T07:27:46.407Z,185.63
2023-04-21T07:28:46.320Z,185.63
2023-04-21T07:29:46.262Z,185.63
2023-04-21T07:30:46.220Z,185.63
2023-04-21T07:31:46.115Z,185.63
2023-04-21T07:32:46.051Z,185.63
2023-04-21T07:33:45.912Z,191.25
2023-04-21T07:34:45.831Z,196.88
2023-04-21T07:35:45.752Z,213.75
2023-04-21T07:36:45.662Z,241.88
2023-04-21T07:37:45.588Z,264.38
2023-04-21T07:38:45.505Z,298.13
2023-04-21T07:39:45.424Z,320.63
2023-04-21T07:40:45.337Z,337.50
2023-04-21T07:41:45.260Z,343.13
2023-04-21T07:42:45.194Z,348.75
2023-04-21T07:43:45.102Z,343.13
2023-04-21T07:44:45.021Z,337.50
2023-04-21T07:45:44.928Z,331.88
2023-04-21T07:46:44.879Z,326.25
2023-04-21T07:47:44.817Z,315.00
2023-04-21T07:48:44.684Z,309.38
2023-04-21T07:49:44.603Z,298.13
2023-04-21T07:50:44.576Z,292.50
2023-04-21T07:51:44.438Z,286.88
2023-04-21T07:52:44.357Z,275.63
2023-04-21T07:53:44.296Z,275.63
2023-04-21T07:54:44.198Z,281.25
2023-04-21T07:55:44.120Z,286.88
2023-04-21T07:56:44.082Z,298.13
2023-04-21T07:57:44.099Z,303.75
2023-04-21T07:58:43.875Z,315.00
2023-04-21T07:59:43.792Z,320.63
2023-04-21T08:00:43.726Z,331.88
2023-04-21T08:01:43.630Z,337.50
2023-04-21T08:02:43.608Z,337.50
2023-04-21T08:03:43.619Z,337.50
2023-04-21T08:04:43.467Z,331.88
2023-04-21T08:05:43.462Z,320.63
2023-04-21T08:06:43.310Z,315.00
2023-04-21T08:07:43.149Z,309.38
2023-04-21T08:08:43.076Z,298.13
2023-04-21T08:09:43.202Z,292.50
2023-04-21T08:10:42.907Z,281.25
2023-04-21T08:11:42.839Z,270.00
2023-04-21T08:12:42.774Z,258.75
2023-04-21T08:13:42.714Z,241.88
2023-04-21T08:14:42.640Z,236.25
2023-04-21T08:15:42.510Z,225.00
2023-04-21T08:16:42.522Z,225.00
2023-04-21T08:17:42.368Z,208.13
2023-04-21T08:18:42.372Z,196.88
2023-04-21T08:19:42.220Z,185.63
2023-04-21T08:20:42.106Z,174.38
2023-04-21T08:21:42.026Z,168.75
2023-04-21T08:22:42.001Z,157.50
2023-04-21T08:23:42.166Z,151.88
2023-04-21T08:24:41.824Z,151.88
2023-04-21T08:25:41.708Z,151.88
2023-04-21T08:26:41.830Z,163.13
2023-04-21T08:27:41.556Z,174.38
2023-04-21T08:28:41.474Z,185.63
2023-04-21T08:29:41.386Z,191.25
2023-04-21T08:30:41.412Z,213.75
2023-04-21T08:31:41.296Z,225.00
2023-04-21T08:32:41.197Z,225.00
2023-04-21T08:33:50.108Z,230.63
2023-04-21T08:34:41.010Z,236.25
2023-04-21T08:35:51.132Z,241.88
2023-04-21T08:36:40.826Z,253.13
2023-04-21T08:37:40.788Z,264.38
2023-04-21T08:38:40.677Z,292.50
2023-04-21T08:39:40.583Z,315.00
2023-04-21T08:40:40.502Z,326.25
2023-04-21T08:41:40.423Z,331.88
2023-04-21T08:42:40.347Z,337.50
2023-04-21T08:43:40.267Z,343.13
2023-04-21T08:44:40.586Z,348.75
2023-04-21T08:45:40.169Z,354.38
2023-04-21T08:46:40.060Z,365.63
2023-04-21T08:47:40.412Z,371.25
2023-04-21T08:48:39.876Z,382.50
2023-04-21T08:49:39.785Z,388.13
2023-04-21T08:50:39.706Z,388.13
2023-04-21T08:51:39.672Z,382.50
2023-04-21T08:52:39.545Z,382.50
2023-04-21T08:53:39.469Z,376.88
2023-04-21T08:54:39.394Z,376.88
2023-04-21T08:55:39.306Z,376.88
2023-04-21T08:56:39.229Z,376.88
2023-04-21T08:57:39.303Z,376.88
2023-04-21T08:58:39.084Z,382.50
2023-04-21T08:59:38.986Z,382.50
2023-04-21T09:00:38.907Z,382.50
2023-04-21T09:01:38.883Z,382.50
2023-04-21T09:02:38.928Z,382.50
2023-04-21T09:03:38.971Z,382.50
2023-04-21T09:04:38.970Z,388.13
2023-04-21T09:05:42.855Z,388.13
2023-04-21T09:06:38.473Z,388.13
2023-04-21T09:07:38.383Z,382.50
2023-04-21T09:08:38.276Z,376.88
2023-04-21T09:09:38.202Z,382.50
2023-04-21T09:10:38.126Z,382.50
2023-04-21T09:11:38.036Z,393.75
2023-04-21T09:12:37.957Z,410.63
2023-04-21T09:13:37.892Z,421.88
2023-04-21T09:14:37.798Z,433.13
2023-04-21T09:15:37.726Z,433.13
2023-04-21T09:16:40.297Z,427.50
2023-04-21T09:17:37.596Z,427.50
2023-04-21T09:35:13.398Z,495.00
2023-04-21T09:36:13.292Z,489.38
2023-04-21T09:37:13.573Z,500.63
2023-04-21T09:38:13.134Z,517.50
2023-04-21T09:39:34.391Z,545.63
2023-04-21T09:40:12.979Z,540.00
2023-04-21T09:41:12.910Z,495.00
2023-04-21T09:42:12.821Z,478.13
2023-04-21T09:43:12.739Z,528.75
2023-04-21T09:44:12.669Z,601.88
2023-04-21T09:46:12.542Z,613.13
2023-04-21T09:47:12.432Z,523.13
2023-04-21T09:48:12.354Z,489.38
2023-04-21T09:49:12.289Z,472.50
2023-04-21T09:50:12.724Z,461.25
2023-04-21T09:51:30.887Z,433.13
2023-04-21T09:52:18.445Z,416.25
2023-04-21T09:53:11.971Z,438.75
2023-04-21T09:54:25.987Z,466.88
2023-04-21T09:55:11.804Z,466.88
2023-04-21T09:56:11.728Z,528.75
2023-04-21T09:57:11.656Z,579.38
2023-04-21T09:58:11.581Z,427.50
2023-04-21T09:59:56.604Z,376.88
2023-04-21T10:00:53.905Z,382.50
2023-04-21T10:01:53.929Z,382.50
2023-04-21T10:02:53.856Z,376.88
2023-04-21T10:03:54.020Z,371.25
2023-04-21T10:04:53.888Z,371.25
2023-04-21T10:05:53.576Z,360.00
2023-04-21T10:06:53.455Z,326.25
2023-04-21T10:07:53.405Z,303.75
2023-04-21T10:08:53.285Z,309.38
2023-04-21T10:09:53.201Z,315.00
2023-04-21T10:10:53.121Z,331.88
2023-04-21T10:11:53.052Z,348.75
2023-04-21T10:12:52.970Z,405.00
2023-04-21T10:13:52.889Z,478.13
2023-04-21T10:14:52.810Z,511.88
2023-04-21T10:15:52.764Z,579.38
2023-04-21T10:16:53.003Z,472.50
2023-04-21T10:17:52.634Z,528.75
2023-04-21T10:18:52.497Z,528.75
2023-04-21T10:19:52.416Z,568.13
2023-04-21T10:20:52.345Z,562.50
2023-04-21T10:21:52.515Z,545.63
2023-04-21T10:22:52.316Z,624.38
2023-04-21T10:23:52.109Z,613.13
2023-04-21T10:24:52.032Z,590.63
2023-04-21T10:25:51.956Z,562.50
2023-04-21T10:26:54.672Z,483.75
2023-04-21T10:27:51.797Z,450.00
2023-04-21T10:28:51.720Z,455.63
2023-04-21T10:29:56.617Z,472.50
2023-04-21T10:30:51.568Z,517.50
2023-04-21T10:31:51.553Z,556.88
2023-04-21T10:32:51.440Z,624.38
2023-04-21T10:33:51.334Z,585.00
2023-04-21T10:34:51.256Z,534.38
2023-04-21T10:35:51.178Z,461.25
2023-04-21T10:36:51.103Z,376.88
2023-04-21T10:37:51.022Z,326.25
2023-04-21T10:38:50.968Z,326.25
2023-04-21T10:39:50.871Z,320.63
2023-04-21T10:40:51.043Z,331.88
2023-04-21T10:41:50.714Z,438.75
2023-04-21T10:42:50.635Z,534.38
2023-04-21T10:43:50.599Z,573.75
2023-04-21T10:44:50.481Z,579.38
2023-04-21T10:45:50.403Z,568.13
2023-04-21T10:46:50.356Z,573.75
2023-04-21T10:47:50.303Z,568.13
2023-04-21T10:48:50.258Z,556.88
2023-04-21T10:49:50.101Z,579.38
2023-04-21T10:50:50.274Z,590.63
2023-04-21T10:51:50.001Z,551.25
2023-04-21T10:52:49.862Z,500.63
2023-04-21T10:53:49.788Z,478.13
2023-04-21T10:54:49.770Z,483.75
2023-04-21T10:55:49.631Z,551.25
2023-04-21T10:56:49.574Z,641.25
2023-04-21T10:57:49.492Z,703.13
2023-04-21T10:58:49.406Z,652.50
2023-04-21T10:59:49.528Z,663.75
2023-04-21T11:00:49.279Z,736.88
2023-04-21T11:01:49.327Z,680.63
2023-04-21T11:02:52.042Z,585.00
2023-04-21T11:03:49.184Z,472.50
2023-04-21T11:04:49.507Z,523.13
2023-04-21T11:05:48.913Z,511.88
2023-04-21T11:06:48.799Z,450.00
2023-04-21T11:07:48.723Z,455.63
2023-04-21T11:08:48.634Z,534.38
2023-04-21T11:09:48.720Z,573.75
2023-04-21T11:10:48.503Z,652.50
2023-04-21T11:11:48.417Z,551.25
2023-04-21T11:12:48.330Z,405.00
2023-04-21T11:13:48.252Z,270.00
2023-04-21T11:14:48.309Z,219.38
2023-04-21T11:15:48.099Z,208.13
2023-04-21T11:16:48.039Z,258.75
2023-04-21T11:17:47.969Z,399.38
2023-04-21T11:18:47.897Z,483.75
2023-04-21T11:19:47.797Z,500.63
2023-04-21T11:20:47.714Z,500.63
2023-04-21T11:21:47.641Z,517.50
2023-04-21T11:22:47.560Z,540.00
2023-04-21T11:23:47.488Z,500.63
2023-04-21T11:24:47.409Z,461.25
2023-04-21T11:25:49.496Z,405.00
2023-04-21T11:26:47.278Z,365.63
2023-04-21T11:27:47.179Z,388.13
2023-04-21T11:28:47.107Z,410.63
2023-04-21T11:29:47.057Z,354.38
2023-04-21T11:30:47.000Z,360.00
2023-04-21T11:31:46.871Z,371.25
2023-04-21T11:32:46.842Z,399.38
2023-04-21T11:33:46.713Z,489.38
2023-04-21T11:34:46.641Z,680.63
2023-04-21T11:35:46.561Z,601.88
2023-04-21T11:36:47.297Z,466.88
2023-04-21T11:37:46.423Z,382.50
2023-04-21T11:38:46.333Z,399.38
2023-04-21T11:39:46.264Z,421.88
2023-04-21T11:40:46.180Z,528.75
2023-04-21T11:41:46.103Z,517.50
2023-04-21T11:42:46.047Z,523.13
2023-04-21T11:43:45.963Z,517.50
2023-04-21T11:44:45.880Z,466.88
2023-04-21T11:45:45.948Z,421.88
2023-04-21T11:46:45.776Z,376.88
2023-04-21T11:47:45.999Z,354.38
2023-04-21T11:48:45.637Z,354.38
2023-04-21T11:49:45.494Z,348.75
2023-04-21T11:50:45.421Z,348.75
2023-04-21T11:51:45.340Z,382.50
2023-04-21T11:52:45.268Z,444.38
2023-04-21T11:53:45.185Z,540.00
2023-04-21T11:54:45.126Z,641.25
2023-04-21T11:55:45.031Z,810.00
2023-04-21T11:56:44.954Z,675.00
2023-04-21T11:57:44.904Z,590.63
2023-04-21T11:58:44.962Z,551.25
2023-04-21T11:59:44.735Z,517.50
2023-04-21T12:00:44.652Z,528.75
2023-04-21T12:01:44.575Z,483.75
2023-04-21T12:02:44.739Z,478.13
2023-04-21T12:03:44.600Z,438.75
2023-04-21T12:04:44.453Z,427.50
2023-04-21T12:05:44.296Z,455.63
2023-04-21T12:06:44.215Z,455.63
2023-04-21T12:07:44.114Z,506.25
2023-04-21T12:08:44.035Z,483.75
2023-04-21T12:09:43.959Z,517.50
2023-04-21T12:10:43.882Z,652.50
2023-04-21T12:11:43.811Z,720.00
2023-04-21T12:12:43.727Z,691.88
2023-04-21T12:13:43.651Z,680.63
2023-04-21T12:14:43.746Z,641.25
2023-04-21T12:15:43.496Z,579.38
2023-04-21T12:16:43.528Z,945.00
2023-04-21T12:17:43.365Z,1051.88
2023-04-21T12:18:43.273Z,585.00
2023-04-21T12:19:43.219Z,444.38
2023-04-21T12:20:43.122Z,382.50
2023-04-21T12:21:43.044Z,348.75
2023-04-21T12:22:42.964Z,326.25
2023-04-21T12:23:42.902Z,315.00
2023-04-21T12:24:42.821Z,292.50
2023-04-21T12:25:42.741Z,315.00
2023-04-21T12:26:42.668Z,337.50
2023-04-21T12:27:42.584Z,388.13
2023-04-21T12:28:42.515Z,405.00
2023-04-21T12:29:42.554Z,478.13
2023-04-21T12:30:42.841Z,495.00
2023-04-21T12:31:42.330Z,528.75
2023-04-21T12:32:42.263Z,663.75
2023-04-21T12:33:42.215Z,815.63
2023-04-21T12:34:42.608Z,849.38
2023-04-21T12:35:41.984Z,1006.88
2023-04-21T12:36:41.906Z,888.75
2023-04-21T12:37:42.080Z,1271.25
2023-04-21T12:38:41.755Z,1209.38
2023-04-21T12:39:41.677Z,2025.00
2023-04-21T12:40:41.601Z,3453.75
2023-04-21T12:41:41.531Z,4140.00
2023-04-21T12:42:41.453Z,3965.63
2023-04-21T12:43:41.391Z,3920.63
2023-04-21T12:44:41.312Z,3926.25
2023-04-21T12:45:41.296Z,3853.13
2023-04-21T12:47:23.879Z,3757.50
2023-04-21T12:49:44.721Z,3763.13
2023-04-21T12:50:31.210Z,3701.25
2023-04-21T12:51:31.134Z,3892.50
2023-04-21T12:52:31.119Z,3954.38
2023-04-21T12:53:31.357Z,3999.38
2023-04-21T12:55:18.419Z,1181.25
2023-04-21T12:56:18.749Z,3999.38
2023-04-21T12:57:18.285Z,3498.75
2023-04-21T12:58:18.560Z,3999.38
2023-04-21T12:59:18.142Z,3926.25
2023-04-21T13:02:48.038Z,3819.38
2023-04-21T13:03:43.838Z,3785.63
2023-04-21T13:04:43.627Z,3763.13
2023-04-21T13:05:45.347Z,3960.00
2023-04-21T13:06:44.491Z,3706.88
2023-04-21T13:07:43.409Z,3819.38
2023-04-21T13:08:44.465Z,3813.75
2023-04-21T13:09:43.276Z,3718.13
2023-04-21T13:10:43.214Z,3099.38
2023-04-21T13:11:43.139Z,3723.75
2023-04-21T13:13:30.671Z,3870.00
2023-04-21T13:14:33.322Z,3847.50
2023-04-21T13:15:30.428Z,3588.75
2023-04-21T13:16:31.929Z,3684.38
2023-04-21T13:18:30.256Z,3830.63
2023-04-21T13:19:30.612Z,3746.25
2023-04-21T13:20:30.164Z,3903.75
2023-04-21T13:21:30.343Z,3881.25
2023-04-21T13:22:29.987Z,3808.13
2023-04-21T13:23:29.912Z,3920.63
2023-04-21T13:24:30.149Z,3841.88